sensor_id;sensor_type;location;lat;lon;timestamp;temperature;humidity
71088;SHT31;58747;50.674;4.616;2022-12-07T00:01:30;3.93;98.32
71088;SHT31;58747;50.674;4.616;2022-12-07T00:04:00;3.95;98.37
71088;SHT31;58747;50.674;4.616;2022-12-07T00:06:33;3.94;98.24
71088;SHT31;58747;50.674;4.616;2022-12-07T00:08:58;4.00;98.33
71088;SHT31;58747;50.674;4.616;2022-12-07T00:11:24;4.00;98.06
71088;SHT31;58747;50.674;4.616;2022-12-07T00:13:54;4.00;98.14
71088;SHT31;58747;50.674;4.616;2022-12-07T00:16:22;4.03;98.24
71088;SHT31;58747;50.674;4.616;2022-12-07T00:18:47;4.10;98.17
71088;SHT31;58747;50.674;4.616;2022-12-07T00:21:34;4.10;98.00
71088;SHT31;58747;50.674;4.616;2022-12-07T00:24:00;3.97;97.86
71088;SHT31;58747;50.674;4.616;2022-12-07T00:26:28;3.94;98.03
71088;SHT31;58747;50.674;4.616;2022-12-07T00:28:59;3.93;98.12
71088;SHT31;58747;50.674;4.616;2022-12-07T00:31:28;3.87;98.16
71088;SHT31;58747;50.674;4.616;2022-12-07T00:33:54;3.86;98.10
71088;SHT31;58747;50.674;4.616;2022-12-07T00:36:21;3.82;98.16
71088;SHT31;58747;50.674;4.616;2022-12-07T00:38:47;3.77;98.44
71088;SHT31;58747;50.674;4.616;2022-12-07T00:41:18;3.79;98.58
71088;SHT31;58747;50.674;4.616;2022-12-07T00:43:44;3.79;98.66
71088;SHT31;58747;50.674;4.616;2022-12-07T00:46:11;3.74;98.61
71088;SHT31;58747;50.674;4.616;2022-12-07T00:48:37;3.72;98.55
71088;SHT31;58747;50.674;4.616;2022-12-07T00:51:03;3.72;98.49
71088;SHT31;58747;50.674;4.616;2022-12-07T00:53:28;3.69;98.40
71088;SHT31;58747;50.674;4.616;2022-12-07T00:55:54;3.63;98.46
71088;SHT31;58747;50.674;4.616;2022-12-07T00:58:21;3.58;98.72
71088;SHT31;58747;50.674;4.616;2022-12-07T01:00:47;3.56;98.83
71088;SHT31;58747;50.674;4.616;2022-12-07T01:03:13;3.59;98.92
71088;SHT31;58747;50.674;4.616;2022-12-07T01:05:39;3.56;98.95
71088;SHT31;58747;50.674;4.616;2022-12-07T01:08:06;3.59;98.92
71088;SHT31;58747;50.674;4.616;2022-12-07T01:10:32;3.62;98.91
71088;SHT31;58747;50.674;4.616;2022-12-07T01:12:58;3.59;98.91
71088;SHT31;58747;50.674;4.616;2022-12-07T01:15:24;3.62;98.98
71088;SHT31;58747;50.674;4.616;2022-12-07T01:17:50;3.58;98.86
71088;SHT31;58747;50.674;4.616;2022-12-07T01:20:16;3.56;98.90
71088;SHT31;58747;50.674;4.616;2022-12-07T01:22:42;3.55;98.97
71088;SHT31;58747;50.674;4.616;2022-12-07T01:25:09;3.51;98.84
71088;SHT31;58747;50.674;4.616;2022-12-07T01:27:35;3.49;98.65
71088;SHT31;58747;50.674;4.616;2022-12-07T01:30:02;3.46;98.90
71088;SHT31;58747;50.674;4.616;2022-12-07T01:32:28;3.49;99.02
71088;SHT31;58747;50.674;4.616;2022-12-07T01:34:54;3.56;99.15
71088;SHT31;58747;50.674;4.616;2022-12-07T01:37:19;3.62;99.12
71088;SHT31;58747;50.674;4.616;2022-12-07T01:39:44;3.62;98.89
71088;SHT31;58747;50.674;4.616;2022-12-07T01:42:13;3.65;98.80
71088;SHT31;58747;50.674;4.616;2022-12-07T01:47:53;3.66;98.55
71088;SHT31;58747;50.674;4.616;2022-12-07T01:50:21;3.65;98.54
71088;SHT31;58747;50.674;4.616;2022-12-07T01:52:51;3.62;98.53
71088;SHT31;58747;50.674;4.616;2022-12-07T01:55:17;3.67;98.55
71088;SHT31;58747;50.674;4.616;2022-12-07T01:57:47;3.66;98.44
71088;SHT31;58747;50.674;4.616;2022-12-07T02:00:14;3.72;98.35
71088;SHT31;58747;50.674;4.616;2022-12-07T02:02:47;3.72;98.38
71088;SHT31;58747;50.674;4.616;2022-12-07T02:05:13;3.66;98.33
71088;SHT31;58747;50.674;4.616;2022-12-07T02:07:39;3.65;98.42
71088;SHT31;58747;50.674;4.616;2022-12-07T02:10:16;3.63;98.33
71088;SHT31;58747;50.674;4.616;2022-12-07T02:12:47;3.60;98.40
71088;SHT31;58747;50.674;4.616;2022-12-07T02:15:13;3.62;98.62
71088;SHT31;58747;50.674;4.616;2022-12-07T02:17:58;3.62;98.63
71088;SHT31;58747;50.674;4.616;2022-12-07T02:20:33;3.58;98.71
71088;SHT31;58747;50.674;4.616;2022-12-07T02:26:09;3.60;98.78
71088;SHT31;58747;50.674;4.616;2022-12-07T02:29:11;3.62;98.63
71088;SHT31;58747;50.674;4.616;2022-12-07T02:31:46;3.65;98.64
71088;SHT31;58747;50.674;4.616;2022-12-07T02:34:24;3.62;98.50
71088;SHT31;58747;50.674;4.616;2022-12-07T02:36:57;3.60;98.57
71088;SHT31;58747;50.674;4.616;2022-12-07T02:39:37;3.65;98.73
71088;SHT31;58747;50.674;4.616;2022-12-07T02:42:12;3.69;98.69
71088;SHT31;58747;50.674;4.616;2022-12-07T02:44:39;3.73;98.46
71088;SHT31;58747;50.674;4.616;2022-12-07T02:47:08;3.76;98.36
71088;SHT31;58747;50.674;4.616;2022-12-07T02:49:36;3.76;98.08
71088;SHT31;58747;50.674;4.616;2022-12-07T02:52:02;3.72;98.14
71088;SHT31;58747;50.674;4.616;2022-12-07T02:54:28;3.69;98.22
71088;SHT31;58747;50.674;4.616;2022-12-07T02:56:56;3.65;98.17
71088;SHT31;58747;50.674;4.616;2022-12-07T03:10:25;3.67;98.21
71088;SHT31;58747;50.674;4.616;2022-12-07T03:13:10;3.66;98.24
71088;SHT31;58747;50.674;4.616;2022-12-07T03:15:53;3.69;98.23
71088;SHT31;58747;50.674;4.616;2022-12-07T03:18:22;3.70;98.22
71088;SHT31;58747;50.674;4.616;2022-12-07T03:20:51;3.67;98.31
71088;SHT31;58747;50.674;4.616;2022-12-07T03:23:19;3.69;98.26
71088;SHT31;58747;50.674;4.616;2022-12-07T03:25:49;3.66;98.19
71088;SHT31;58747;50.674;4.616;2022-12-07T03:28:20;3.63;98.47
71088;SHT31;58747;50.674;4.616;2022-12-07T03:30:50;3.60;98.37
71088;SHT31;58747;50.674;4.616;2022-12-07T03:33:34;3.62;98.46
71088;SHT31;58747;50.674;4.616;2022-12-07T03:36:08;3.63;98.45
71088;SHT31;58747;50.674;4.616;2022-12-07T03:38:46;3.62;98.30
71088;SHT31;58747;50.674;4.616;2022-12-07T03:41:25;3.52;98.24
71088;SHT31;58747;50.674;4.616;2022-12-07T03:43:51;3.48;98.36
71088;SHT31;58747;50.674;4.616;2022-12-07T03:46:32;3.38;98.51
71088;SHT31;58747;50.674;4.616;2022-12-07T03:52:00;3.34;98.52
71088;SHT31;58747;50.674;4.616;2022-12-07T03:54:39;3.24;98.69
71088;SHT31;58747;50.674;4.616;2022-12-07T03:57:06;3.18;98.61
71088;SHT31;58747;50.674;4.616;2022-12-07T03:59:33;3.18;98.72
71088;SHT31;58747;50.674;4.616;2022-12-07T04:02:04;3.15;98.77
71088;SHT31;58747;50.674;4.616;2022-12-07T04:04:30;3.11;98.84
71088;SHT31;58747;50.674;4.616;2022-12-07T04:06:55;3.09;98.72
71088;SHT31;58747;50.674;4.616;2022-12-07T04:09:21;3.07;98.69
71088;SHT31;58747;50.674;4.616;2022-12-07T04:11:46;3.08;98.80
71088;SHT31;58747;50.674;4.616;2022-12-07T04:14:12;3.05;98.83
71088;SHT31;58747;50.674;4.616;2022-12-07T04:16:47;3.07;98.96
71088;SHT31;58747;50.674;4.616;2022-12-07T04:19:14;3.11;99.30
71088;SHT31;58747;50.674;4.616;2022-12-07T04:21:39;3.16;99.48
71088;SHT31;58747;50.674;4.616;2022-12-07T04:24:05;3.22;99.68
71088;SHT31;58747;50.674;4.616;2022-12-07T04:26:30;3.25;99.70
71088;SHT31;58747;50.674;4.616;2022-12-07T04:28:56;3.25;99.71
71088;SHT31;58747;50.674;4.616;2022-12-07T04:31:21;3.24;99.64
71088;SHT31;58747;50.674;4.616;2022-12-07T04:33:46;3.26;99.54
71088;SHT31;58747;50.674;4.616;2022-12-07T04:36:12;3.24;99.52
71088;SHT31;58747;50.674;4.616;2022-12-07T04:38:37;3.22;99.43
71088;SHT31;58747;50.674;4.616;2022-12-07T04:41:06;3.14;99.30
71088;SHT31;58747;50.674;4.616;2022-12-07T04:43:32;3.05;99.29
71088;SHT31;58747;50.674;4.616;2022-12-07T04:45:58;3.04;99.18
71088;SHT31;58747;50.674;4.616;2022-12-07T04:48:23;3.00;99.15
71088;SHT31;58747;50.674;4.616;2022-12-07T04:50:48;3.00;99.29
71088;SHT31;58747;50.674;4.616;2022-12-07T04:53:17;3.00;99.47
71088;SHT31;58747;50.674;4.616;2022-12-07T04:55:44;3.03;99.54
71088;SHT31;58747;50.674;4.616;2022-12-07T04:58:09;3.09;99.65
71088;SHT31;58747;50.674;4.616;2022-12-07T05:00:34;3.11;99.69
71088;SHT31;58747;50.674;4.616;2022-12-07T05:03:00;3.22;99.72
71088;SHT31;58747;50.674;4.616;2022-12-07T05:05:25;3.24;99.79
71088;SHT31;58747;50.674;4.616;2022-12-07T05:07:50;3.26;99.86
71088;SHT31;58747;50.674;4.616;2022-12-07T05:10:16;3.29;99.81
71088;SHT31;58747;50.674;4.616;2022-12-07T05:12:41;3.32;99.84
71088;SHT31;58747;50.674;4.616;2022-12-07T05:15:07;3.36;99.73
71088;SHT31;58747;50.674;4.616;2022-12-07T05:17:32;3.38;99.70
71088;SHT31;58747;50.674;4.616;2022-12-07T05:19:57;3.39;99.66
71088;SHT31;58747;50.674;4.616;2022-12-07T05:22:23;3.45;99.59
71088;SHT31;58747;50.674;4.616;2022-12-07T05:24:53;3.39;99.49
71088;SHT31;58747;50.674;4.616;2022-12-07T05:27:18;3.39;99.53
71088;SHT31;58747;50.674;4.616;2022-12-07T05:29:43;3.42;99.74
71088;SHT31;58747;50.674;4.616;2022-12-07T05:32:09;3.39;99.65
71088;SHT31;58747;50.674;4.616;2022-12-07T05:34:34;3.42;99.64
71088;SHT31;58747;50.674;4.616;2022-12-07T05:36:59;3.42;99.49
71088;SHT31;58747;50.674;4.616;2022-12-07T05:39:25;3.38;99.38
71088;SHT31;58747;50.674;4.616;2022-12-07T05:41:50;3.31;99.39
71088;SHT31;58747;50.674;4.616;2022-12-07T05:44:34;3.29;99.40
71088;SHT31;58747;50.674;4.616;2022-12-07T05:46:59;3.31;99.43
71088;SHT31;58747;50.674;4.616;2022-12-07T05:49:24;3.28;99.35
71088;SHT31;58747;50.674;4.616;2022-12-07T05:51:50;3.29;99.39
71088;SHT31;58747;50.674;4.616;2022-12-07T05:54:15;3.29;99.37
71088;SHT31;58747;50.674;4.616;2022-12-07T05:56:40;3.29;99.45
71088;SHT31;58747;50.674;4.616;2022-12-07T05:59:06;3.29;99.49
71088;SHT31;58747;50.674;4.616;2022-12-07T06:01:54;3.34;99.49
71088;SHT31;58747;50.674;4.616;2022-12-07T06:04:20;3.32;99.43
71088;SHT31;58747;50.674;4.616;2022-12-07T06:06:46;3.36;99.38
71088;SHT31;58747;50.674;4.616;2022-12-07T06:09:12;3.40;99.34
71088;SHT31;58747;50.674;4.616;2022-12-07T06:11:38;3.38;99.30
71088;SHT31;58747;50.674;4.616;2022-12-07T06:14:22;3.39;99.28
71088;SHT31;58747;50.674;4.616;2022-12-07T06:16:48;3.43;99.22
71088;SHT31;58747;50.674;4.616;2022-12-07T06:19:13;3.49;99.20
71088;SHT31;58747;50.674;4.616;2022-12-07T06:21:39;3.43;98.94
71088;SHT31;58747;50.674;4.616;2022-12-07T06:24:04;3.51;98.94
71088;SHT31;58747;50.674;4.616;2022-12-07T06:26:30;3.43;98.69
71088;SHT31;58747;50.674;4.616;2022-12-07T06:28:55;3.43;98.80
71088;SHT31;58747;50.674;4.616;2022-12-07T06:31:21;3.40;98.79
71088;SHT31;58747;50.674;4.616;2022-12-07T06:33:46;3.42;98.86
71088;SHT31;58747;50.674;4.616;2022-12-07T06:36:11;3.43;98.89
71088;SHT31;58747;50.674;4.616;2022-12-07T06:38:37;3.43;98.71
71088;SHT31;58747;50.674;4.616;2022-12-07T06:41:03;3.43;98.59
71088;SHT31;58747;50.674;4.616;2022-12-07T06:43:29;3.45;98.55
71088;SHT31;58747;50.674;4.616;2022-12-07T06:45:54;3.43;98.73
71088;SHT31;58747;50.674;4.616;2022-12-07T06:48:20;3.46;98.62
71088;SHT31;58747;50.674;4.616;2022-12-07T06:50:45;3.42;98.58
71088;SHT31;58747;50.674;4.616;2022-12-07T06:53:11;3.38;98.57
71088;SHT31;58747;50.674;4.616;2022-12-07T06:55:37;3.36;98.62
71088;SHT31;58747;50.674;4.616;2022-12-07T06:58:02;3.36;98.52
71088;SHT31;58747;50.674;4.616;2022-12-07T07:00:28;3.36;98.65
71088;SHT31;58747;50.674;4.616;2022-12-07T07:02:53;3.34;98.62
71088;SHT31;58747;50.674;4.616;2022-12-07T07:05:20;3.32;98.76
71088;SHT31;58747;50.674;4.616;2022-12-07T07:07:48;3.32;98.76
71088;SHT31;58747;50.674;4.616;2022-12-07T07:10:13;3.32;98.88
71088;SHT31;58747;50.674;4.616;2022-12-07T07:12:38;3.32;98.83
71088;SHT31;58747;50.674;4.616;2022-12-07T07:15:04;3.29;98.88
71088;SHT31;58747;50.674;4.616;2022-12-07T07:17:30;3.34;98.95
71088;SHT31;58747;50.674;4.616;2022-12-07T07:19:55;3.31;98.82
71088;SHT31;58747;50.674;4.616;2022-12-07T07:22:20;3.31;98.97
71088;SHT31;58747;50.674;4.616;2022-12-07T07:24:45;3.35;98.90
71088;SHT31;58747;50.674;4.616;2022-12-07T07:27:11;3.31;98.86
71088;SHT31;58747;50.674;4.616;2022-12-07T07:29:36;3.29;98.89
71088;SHT31;58747;50.674;4.616;2022-12-07T07:32:01;3.26;98.85
71088;SHT31;58747;50.674;4.616;2022-12-07T07:34:27;3.21;99.03
71088;SHT31;58747;50.674;4.616;2022-12-07T07:36:52;3.19;99.09
71088;SHT31;58747;50.674;4.616;2022-12-07T07:39:17;3.16;99.09
71088;SHT31;58747;50.674;4.616;2022-12-07T07:41:43;3.22;99.18
71088;SHT31;58747;50.674;4.616;2022-12-07T07:44:09;3.22;99.15
71088;SHT31;58747;50.674;4.616;2022-12-07T07:46:35;3.24;99.18
71088;SHT31;58747;50.674;4.616;2022-12-07T07:49:00;3.24;99.06
71088;SHT31;58747;50.674;4.616;2022-12-07T07:51:25;3.26;99.00
71088;SHT31;58747;50.674;4.616;2022-12-07T07:53:50;3.31;98.99
71088;SHT31;58747;50.674;4.616;2022-12-07T07:56:16;3.31;98.92
71088;SHT31;58747;50.674;4.616;2022-12-07T07:58:41;3.28;98.94
71088;SHT31;58747;50.674;4.616;2022-12-07T08:01:07;3.26;98.93
71088;SHT31;58747;50.674;4.616;2022-12-07T08:03:32;3.32;98.83
71088;SHT31;58747;50.674;4.616;2022-12-07T08:05:58;4.01;99.99
71088;SHT31;58747;50.674;4.616;2022-12-07T08:08:23;3.76;98.83
71088;SHT31;58747;50.674;4.616;2022-12-07T08:10:48;3.79;98.53
71088;SHT31;58747;50.674;4.616;2022-12-07T08:13:17;3.66;98.18
71088;SHT31;58747;50.674;4.616;2022-12-07T08:15:46;3.59;98.19
71088;SHT31;58747;50.674;4.616;2022-12-07T08:18:12;3.58;98.47
71088;SHT31;58747;50.674;4.616;2022-12-07T08:20:38;3.53;98.50
71088;SHT31;58747;50.674;4.616;2022-12-07T08:23:04;3.48;98.34
71088;SHT31;58747;50.674;4.616;2022-12-07T08:25:31;3.49;98.57
71088;SHT31;58747;50.674;4.616;2022-12-07T08:27:56;3.43;98.61
71088;SHT31;58747;50.674;4.616;2022-12-07T08:30:21;3.46;98.68
71088;SHT31;58747;50.674;4.616;2022-12-07T08:32:47;3.49;98.66
71088;SHT31;58747;50.674;4.616;2022-12-07T08:35:13;3.49;98.65
71088;SHT31;58747;50.674;4.616;2022-12-07T08:37:39;3.46;98.52
71088;SHT31;58747;50.674;4.616;2022-12-07T08:40:07;3.42;98.45
71088;SHT31;58747;50.674;4.616;2022-12-07T08:42:32;3.40;98.43
71088;SHT31;58747;50.674;4.616;2022-12-07T08:45:09;3.38;98.30
71088;SHT31;58747;50.674;4.616;2022-12-07T08:47:37;3.29;98.28
71088;SHT31;58747;50.674;4.616;2022-12-07T08:50:05;4.14;99.97
71088;SHT31;58747;50.674;4.616;2022-12-07T08:52:32;3.91;96.62
71088;SHT31;58747;50.674;4.616;2022-12-07T08:55:00;3.79;97.33
71088;SHT31;58747;50.674;4.616;2022-12-07T08:57:27;3.65;97.18
71088;SHT31;58747;50.674;4.616;2022-12-07T08:59:53;3.60;97.47
71088;SHT31;58747;50.674;4.616;2022-12-07T09:02:18;3.56;97.65
71088;SHT31;58747;50.674;4.616;2022-12-07T09:04:44;3.59;97.91
71088;SHT31;58747;50.674;4.616;2022-12-07T09:07:09;3.62;98.12
71088;SHT31;58747;50.674;4.616;2022-12-07T09:09:34;3.67;98.06
71088;SHT31;58747;50.674;4.616;2022-12-07T09:12:00;3.76;98.18
71088;SHT31;58747;50.674;4.616;2022-12-07T09:14:25;3.91;98.09
71088;SHT31;58747;50.674;4.616;2022-12-07T09:16:50;4.04;97.99
71088;SHT31;58747;50.674;4.616;2022-12-07T09:19:16;4.11;97.76
71088;SHT31;58747;50.674;4.616;2022-12-07T09:21:41;4.20;97.52
71088;SHT31;58747;50.674;4.616;2022-12-07T09:24:06;4.25;97.39
71088;SHT31;58747;50.674;4.616;2022-12-07T09:26:32;4.21;96.66
71088;SHT31;58747;50.674;4.616;2022-12-07T09:28:57;4.25;96.65
71088;SHT31;58747;50.674;4.616;2022-12-07T09:31:23;4.27;96.47
71088;SHT31;58747;50.674;4.616;2022-12-07T09:34:01;4.30;96.25
71088;SHT31;58747;50.674;4.616;2022-12-07T09:36:28;4.28;96.49
71088;SHT31;58747;50.674;4.616;2022-12-07T09:38:53;4.38;96.27
71088;SHT31;58747;50.674;4.616;2022-12-07T09:41:19;4.49;96.17
71088;SHT31;58747;50.674;4.616;2022-12-07T09:43:46;4.55;96.12
71088;SHT31;58747;50.674;4.616;2022-12-07T09:46:15;4.59;95.74
71088;SHT31;58747;50.674;4.616;2022-12-07T09:48:43;4.71;96.01
71088;SHT31;58747;50.674;4.616;2022-12-07T09:51:22;4.76;95.16
71088;SHT31;58747;50.674;4.616;2022-12-07T09:53:48;4.86;95.59
71088;SHT31;58747;50.674;4.616;2022-12-07T09:56:15;4.89;95.49
71088;SHT31;58747;50.674;4.616;2022-12-07T09:58:43;4.92;95.11
71088;SHT31;58747;50.674;4.616;2022-12-07T10:03:38;5.07;95.23
71088;SHT31;58747;50.674;4.616;2022-12-07T10:06:05;5.07;94.41
71088;SHT31;58747;50.674;4.616;2022-12-07T10:08:31;5.14;94.90
71088;SHT31;58747;50.674;4.616;2022-12-07T10:10:57;5.04;94.90
71088;SHT31;58747;50.674;4.616;2022-12-07T12:25:51;5.78;91.53
71088;SHT31;58747;50.674;4.616;2022-12-07T12:31:06;5.61;92.60
71088;SHT31;58747;50.674;4.616;2022-12-07T12:33:32;5.52;92.34
71088;SHT31;58747;50.674;4.616;2022-12-07T12:36:24;5.52;92.33
71088;SHT31;58747;50.674;4.616;2022-12-07T12:46:58;5.78;92.79
71088;SHT31;58747;50.674;4.616;2022-12-07T12:51:57;5.90;91.58
71088;SHT31;58747;50.674;4.616;2022-12-07T12:54:28;5.96;92.35
71088;SHT31;58747;50.674;4.616;2022-12-07T12:57:17;5.99;92.19
71088;SHT31;58747;50.674;4.616;2022-12-07T13:02:30;5.85;91.84
71088;SHT31;58747;50.674;4.616;2022-12-07T13:05:00;5.83;91.85
71088;SHT31;58747;50.674;4.616;2022-12-07T13:23:24;5.85;92.01
71088;SHT31;58747;50.674;4.616;2022-12-07T13:28:41;5.71;92.66
71088;SHT31;58747;50.674;4.616;2022-12-07T13:33:54;5.73;92.88
71088;SHT31;58747;50.674;4.616;2022-12-07T13:36:37;5.73;92.72
71088;SHT31;58747;50.674;4.616;2022-12-07T13:39:24;5.71;92.21
71088;SHT31;58747;50.674;4.616;2022-12-07T13:42:11;5.88;92.55
71088;SHT31;58747;50.674;4.616;2022-12-07T13:44:48;5.76;92.40
71088;SHT31;58747;50.674;4.616;2022-12-07T13:47:35;5.82;92.59
71088;SHT31;58747;50.674;4.616;2022-12-07T13:50:01;5.88;92.48
71088;SHT31;58747;50.674;4.616;2022-12-07T13:52:29;5.92;92.41
71088;SHT31;58747;50.674;4.616;2022-12-07T13:57:31;5.83;91.55
71088;SHT31;58747;50.674;4.616;2022-12-07T14:00:00;5.83;92.10
71088;SHT31;58747;50.674;4.616;2022-12-07T14:02:31;5.76;92.27
71088;SHT31;58747;50.674;4.616;2022-12-07T14:07:58;5.61;92.34
71088;SHT31;58747;50.674;4.616;2022-12-07T14:10:35;5.59;92.60
71088;SHT31;58747;50.674;4.616;2022-12-07T14:13:03;5.66;92.39
71088;SHT31;58747;50.674;4.616;2022-12-07T14:15:50;5.66;91.89
71088;SHT31;58747;50.674;4.616;2022-12-07T14:18:39;5.71;92.97
71088;SHT31;58747;50.674;4.616;2022-12-07T14:23:37;5.63;91.90
71088;SHT31;58747;50.674;4.616;2022-12-07T14:26:19;5.68;92.01
71088;SHT31;58747;50.674;4.616;2022-12-07T14:28:46;5.63;92.10
71088;SHT31;58747;50.674;4.616;2022-12-07T14:31:16;5.58;91.60
71088;SHT31;58747;50.674;4.616;2022-12-07T14:33:43;5.66;92.79
71088;SHT31;58747;50.674;4.616;2022-12-07T14:36:09;5.62;92.37
71088;SHT31;58747;50.674;4.616;2022-12-07T14:38:35;5.59;92.61
71088;SHT31;58747;50.674;4.616;2022-12-07T14:41:01;5.63;92.44
71088;SHT31;58747;50.674;4.616;2022-12-07T14:43:45;5.69;92.64
71088;SHT31;58747;50.674;4.616;2022-12-07T14:46:11;5.69;93.33
71088;SHT31;58747;50.674;4.616;2022-12-07T14:48:36;5.65;93.08
71088;SHT31;58747;50.674;4.616;2022-12-07T14:51:02;5.61;92.79
71088;SHT31;58747;50.674;4.616;2022-12-07T14:53:31;5.63;92.65
71088;SHT31;58747;50.674;4.616;2022-12-07T14:55:58;5.56;92.43
71088;SHT31;58747;50.674;4.616;2022-12-07T14:58:24;5.52;93.11
71088;SHT31;58747;50.674;4.616;2022-12-07T15:00:49;5.51;93.45
71088;SHT31;58747;50.674;4.616;2022-12-07T15:03:14;5.40;93.85
71088;SHT31;58747;50.674;4.616;2022-12-07T15:05:40;5.35;94.77
71088;SHT31;58747;50.674;4.616;2022-12-07T15:08:06;5.35;95.05
71088;SHT31;58747;50.674;4.616;2022-12-07T15:10:33;5.31;94.83
71088;SHT31;58747;50.674;4.616;2022-12-07T15:13:00;5.30;95.22
71088;SHT31;58747;50.674;4.616;2022-12-07T15:15:50;5.20;95.44
71088;SHT31;58747;50.674;4.616;2022-12-07T15:18:16;5.19;95.84
71088;SHT31;58747;50.674;4.616;2022-12-07T15:20:41;5.13;96.18
71088;SHT31;58747;50.674;4.616;2022-12-07T15:23:07;5.17;96.40
71088;SHT31;58747;50.674;4.616;2022-12-07T15:25:32;5.13;96.41
71088;SHT31;58747;50.674;4.616;2022-12-07T15:27:58;5.07;96.33
71088;SHT31;58747;50.674;4.616;2022-12-07T15:30:24;5.00;96.05
71088;SHT31;58747;50.674;4.616;2022-12-07T15:32:50;4.96;95.75
71088;SHT31;58747;50.674;4.616;2022-12-07T15:35:16;4.90;96.15
71088;SHT31;58747;50.674;4.616;2022-12-07T15:37:41;4.84;95.98
71088;SHT31;58747;50.674;4.616;2022-12-07T15:40:07;5.06;96.31
71088;SHT31;58747;50.674;4.616;2022-12-07T15:42:32;4.99;95.18
71088;SHT31;58747;50.674;4.616;2022-12-07T15:44:57;4.90;95.99
71088;SHT31;58747;50.674;4.616;2022-12-07T15:47:30;4.80;96.02
71088;SHT31;58747;50.674;4.616;2022-12-07T15:49:56;4.73;96.77
71088;SHT31;58747;50.674;4.616;2022-12-07T15:52:21;4.66;95.97
71088;SHT31;58747;50.674;4.616;2022-12-07T15:54:46;4.66;96.87
71088;SHT31;58747;50.674;4.616;2022-12-07T15:57:13;4.59;96.01
71088;SHT31;58747;50.674;4.616;2022-12-07T15:59:38;5.14;97.61
71088;SHT31;58747;50.674;4.616;2022-12-07T16:02:03;4.99;96.13
71088;SHT31;58747;50.674;4.616;2022-12-07T16:04:29;4.84;95.94
71088;SHT31;58747;50.674;4.616;2022-12-07T16:06:55;4.99;96.34
71088;SHT31;58747;50.674;4.616;2022-12-07T16:09:20;4.80;95.67
71088;SHT31;58747;50.674;4.616;2022-12-07T16:11:46;4.71;95.97
71088;SHT31;58747;50.674;4.616;2022-12-07T16:14:12;4.59;96.26
71088;SHT31;58747;50.674;4.616;2022-12-07T16:16:37;4.56;96.55
71088;SHT31;58747;50.674;4.616;2022-12-07T16:19:05;4.53;96.56
71088;SHT31;58747;50.674;4.616;2022-12-07T16:21:31;4.56;96.52
71088;SHT31;58747;50.674;4.616;2022-12-07T16:23:57;4.48;96.49
71088;SHT31;58747;50.674;4.616;2022-12-07T16:26:23;4.46;96.96
71088;SHT31;58747;50.674;4.616;2022-12-07T16:28:49;4.45;96.73
71088;SHT31;58747;50.674;4.616;2022-12-07T16:31:17;4.45;96.87
71088;SHT31;58747;50.674;4.616;2022-12-07T16:33:43;4.45;96.97
71088;SHT31;58747;50.674;4.616;2022-12-07T16:36:10;4.48;97.40
71088;SHT31;58747;50.674;4.616;2022-12-07T16:38:37;4.38;96.84
71088;SHT31;58747;50.674;4.616;2022-12-07T17:01:48;4.32;97.17
71088;SHT31;58747;50.674;4.616;2022-12-07T17:18:37;4.32;97.24
71088;SHT31;58747;50.674;4.616;2022-12-07T18:17:41;4.24;97.57
71088;SHT31;58747;50.674;4.616;2022-12-07T18:25:09;4.30;97.66
71088;SHT31;58747;50.674;4.616;2022-12-07T18:28:00;4.25;97.50
71088;SHT31;58747;50.674;4.616;2022-12-07T18:31:02;4.25;97.70
71088;SHT31;58747;50.674;4.616;2022-12-07T18:37:41;4.27;97.72
71088;SHT31;58747;50.674;4.616;2022-12-07T18:40:47;4.24;98.11
71088;SHT31;58747;50.674;4.616;2022-12-07T18:44:03;4.22;98.06
71088;SHT31;58747;50.674;4.616;2022-12-07T18:47:01;4.22;98.30
71088;SHT31;58747;50.674;4.616;2022-12-07T18:50:01;4.21;98.38
71088;SHT31;58747;50.674;4.616;2022-12-07T18:52:32;4.25;98.47
71088;SHT31;58747;50.674;4.616;2022-12-07T18:54:58;4.24;98.53
71088;SHT31;58747;50.674;4.616;2022-12-07T18:57:25;4.24;98.56
71088;SHT31;58747;50.674;4.616;2022-12-07T18:59:50;4.18;98.57
71088;SHT31;58747;50.674;4.616;2022-12-07T19:02:16;4.15;98.72
71088;SHT31;58747;50.674;4.616;2022-12-07T19:04:43;4.17;98.77
71088;SHT31;58747;50.674;4.616;2022-12-07T19:07:08;4.18;98.59
71088;SHT31;58747;50.674;4.616;2022-12-07T19:09:34;4.20;98.69
71088;SHT31;58747;50.674;4.616;2022-12-07T19:11:59;4.20;98.69
71088;SHT31;58747;50.674;4.616;2022-12-07T19:14:33;4.22;98.66
71088;SHT31;58747;50.674;4.616;2022-12-07T19:17:00;4.15;98.51
71088;SHT31;58747;50.674;4.616;2022-12-07T19:19:38;4.17;98.57
71088;SHT31;58747;50.674;4.616;2022-12-07T19:22:05;4.15;98.48
71088;SHT31;58747;50.674;4.616;2022-12-07T19:24:30;4.18;98.75
71088;SHT31;58747;50.674;4.616;2022-12-07T19:26:56;4.14;98.72
71088;SHT31;58747;50.674;4.616;2022-12-07T19:29:22;4.11;98.81
71088;SHT31;58747;50.674;4.616;2022-12-07T19:31:48;4.05;98.59
71088;SHT31;58747;50.674;4.616;2022-12-07T19:34:14;4.03;98.56
71088;SHT31;58747;50.674;4.616;2022-12-07T19:36:40;3.93;98.54
71088;SHT31;58747;50.674;4.616;2022-12-07T19:39:06;3.87;98.65
71088;SHT31;58747;50.674;4.616;2022-12-07T19:41:32;3.79;98.73
71088;SHT31;58747;50.674;4.616;2022-12-07T19:44:11;3.77;98.82
71088;SHT31;58747;50.674;4.616;2022-12-07T19:46:36;3.74;98.86
71088;SHT31;58747;50.674;4.616;2022-12-07T19:49:11;3.72;98.87
71088;SHT31;58747;50.674;4.616;2022-12-07T19:52:12;3.72;98.91
71088;SHT31;58747;50.674;4.616;2022-12-07T19:55:25;3.73;99.14
71088;SHT31;58747;50.674;4.616;2022-12-07T19:58:11;3.72;99.05
71088;SHT31;58747;50.674;4.616;2022-12-07T20:05:18;3.70;98.81
71088;SHT31;58747;50.674;4.616;2022-12-07T20:11:16;3.66;98.67
71088;SHT31;58747;50.674;4.616;2022-12-07T20:14:28;3.63;98.84
71088;SHT31;58747;50.674;4.616;2022-12-07T20:17:39;3.65;98.86
71088;SHT31;58747;50.674;4.616;2022-12-07T20:20:27;3.65;98.65
71088;SHT31;58747;50.674;4.616;2022-12-07T20:23:27;3.67;98.53
71088;SHT31;58747;50.674;4.616;2022-12-07T20:26:18;3.70;98.54
71088;SHT31;58747;50.674;4.616;2022-12-07T20:40:07;3.76;98.40
71088;SHT31;58747;50.674;4.616;2022-12-07T20:55:16;3.67;98.33
71088;SHT31;58747;50.674;4.616;2022-12-07T21:02:39;3.74;98.09
71088;SHT31;58747;50.674;4.616;2022-12-07T21:12:30;3.74;98.19
71088;SHT31;58747;50.674;4.616;2022-12-07T21:19:08;3.70;98.03
71088;SHT31;58747;50.674;4.616;2022-12-07T21:22:25;3.80;98.23
71088;SHT31;58747;50.674;4.616;2022-12-07T21:24:50;3.83;98.57
71088;SHT31;58747;50.674;4.616;2022-12-07T21:27:19;3.84;98.44
71088;SHT31;58747;50.674;4.616;2022-12-07T21:29:44;3.76;98.03
71088;SHT31;58747;50.674;4.616;2022-12-07T21:32:11;3.72;97.97
71088;SHT31;58747;50.674;4.616;2022-12-07T21:34:39;3.72;98.08
71088;SHT31;58747;50.674;4.616;2022-12-07T21:37:05;3.60;97.82
71088;SHT31;58747;50.674;4.616;2022-12-07T21:42:54;3.52;98.39
71088;SHT31;58747;50.674;4.616;2022-12-07T21:45:31;3.58;98.49
71088;SHT31;58747;50.674;4.616;2022-12-07T21:47:56;3.52;98.57
71088;SHT31;58747;50.674;4.616;2022-12-07T21:50:22;3.55;98.66
71088;SHT31;58747;50.674;4.616;2022-12-07T21:52:47;3.56;98.48